createdAt,value
2023-03-28T00:03:53.855Z,61.59
2023-03-28T00:09:01.582Z,59.82
2023-03-28T00:14:09.839Z,56.51
2023-03-28T00:19:19.170Z,56.32
2023-03-28T00:24:27.243Z,57.28
2023-03-28T00:29:34.802Z,58.11
2023-03-28T00:34:42.562Z,58.79
2023-03-28T00:39:51.511Z,59.33
2023-03-28T00:44:59.851Z,59.88
2023-03-28T00:50:12.351Z,60.48
2023-03-28T00:55:23.873Z,61.05
2023-03-28T01:00:33.328Z,64.74
2023-03-28T01:05:40.826Z,65.94
2023-03-28T01:10:49.435Z,65.00
2023-03-28T01:15:57.407Z,64.33
2023-03-28T01:21:34.410Z,63.74
2023-03-28T01:26:59.785Z,63.11
2023-03-28T01:32:33.738Z,62.44
2023-03-28T01:37:54.752Z,61.89
2023-03-28T01:43:16.283Z,61.33
2023-03-28T01:48:35.580Z,60.83
2023-03-28T01:53:48.983Z,60.35
2023-03-28T01:59:02.990Z,59.87
2023-03-28T02:04:33.813Z,59.67
2023-03-28T02:09:43.996Z,57.88
2023-03-28T02:15:18.725Z,57.58
2023-03-28T02:20:51.990Z,58.50
2023-03-28T02:26:24.382Z,59.24
2023-03-28T02:31:51.461Z,59.98
2023-03-28T02:37:11.432Z,60.74
2023-03-28T02:42:57.127Z,65.28
2023-03-28T02:48:16.326Z,66.05
2023-03-28T02:53:34.763Z,65.08
2023-03-28T02:58:49.147Z,64.43
2023-03-28T03:03:58.160Z,63.94
2023-03-28T03:09:08.576Z,63.64
2023-03-28T03:14:15.982Z,63.49
2023-03-28T03:19:26.234Z,63.34
2023-03-28T03:24:34.953Z,63.14
2023-03-28T03:29:42.171Z,63.01
2023-03-28T03:34:52.732Z,62.95
2023-03-28T03:40:00.029Z,62.85
2023-03-28T03:45:13.887Z,62.57
2023-03-28T03:50:23.074Z,62.47
2023-03-28T03:55:30.769Z,62.39
2023-03-28T04:00:39.009Z,62.16
2023-03-28T04:05:55.409Z,61.91
2023-03-28T04:11:03.156Z,61.75
2023-03-28T04:16:16.828Z,61.78
2023-03-28T04:21:32.029Z,61.80
2023-03-28T04:26:43.531Z,61.77
2023-03-28T04:31:56.609Z,61.91
2023-03-28T04:37:09.788Z,62.17
2023-03-28T04:42:25.383Z,62.42
2023-03-28T04:48:02.294Z,62.69
2023-03-28T04:53:10.126Z,63.02
2023-03-28T04:58:21.697Z,63.34
2023-03-28T05:03:30.059Z,63.55
2023-03-28T05:08:41.868Z,63.69
2023-03-28T05:13:49.298Z,63.84
2023-03-28T05:19:21.313Z,64.01
2023-03-28T05:24:38.947Z,64.26
2023-03-28T05:29:52.996Z,64.55
2023-03-28T05:35:00.397Z,65.00
2023-03-28T05:40:12.915Z,65.36
2023-03-28T05:45:21.957Z,65.66
2023-03-28T05:50:29.548Z,65.68
2023-03-28T05:55:41.364Z,65.67
2023-03-28T06:00:48.824Z,65.63
2023-03-28T06:05:57.043Z,65.31
2023-03-28T06:11:08.216Z,64.94
2023-03-28T06:16:30.188Z,64.45
2023-03-28T06:21:39.335Z,63.86
2023-03-28T06:26:47.226Z,62.89
2023-03-28T06:31:57.690Z,62.22
2023-03-28T06:37:05.789Z,61.77
2023-03-28T06:42:32.314Z,60.16
2023-03-28T06:47:55.574Z,57.33
2023-03-28T06:53:11.189Z,56.98
2023-03-28T06:58:18.789Z,57.43
2023-03-28T07:03:31.920Z,58.15
2023-03-28T07:08:40.274Z,58.73
2023-03-28T07:13:48.081Z,59.57
2023-03-28T07:18:55.539Z,60.32
2023-03-28T07:24:09.392Z,60.89
2023-03-28T07:29:27.521Z,63.72
2023-03-28T07:34:35.012Z,65.02
2023-03-28T07:39:44.203Z,64.93
2023-03-28T07:44:55.744Z,64.02
2023-03-28T07:50:04.187Z,62.62
2023-03-28T07:55:12.226Z,61.28
2023-03-28T08:00:24.138Z,60.80
2023-03-28T08:05:52.072Z,60.73
2023-03-28T08:11:01.538Z,60.37
2023-03-28T08:16:10.814Z,60.13
2023-03-28T08:21:19.091Z,59.53
2023-03-28T08:26:27.519Z,57.77
2023-03-28T08:31:37.261Z,57.05
2023-03-28T08:36:50.399Z,57.50
2023-03-28T08:42:48.151Z,58.17
2023-03-28T08:48:09.647Z,58.67
2023-03-28T08:53:25.300Z,59.56
2023-03-28T08:58:43.032Z,60.57
2023-03-28T09:03:50.789Z,64.13
2023-03-28T09:09:29.219Z,65.09
2023-03-28T09:15:35.395Z,65.20
2023-03-28T09:20:51.652Z,65.43
2023-03-28T09:26:23.950Z,65.46
2023-03-28T09:31:41.965Z,65.28
2023-03-28T09:36:55.324Z,65.06
2023-03-28T09:42:11.313Z,64.97
2023-03-28T09:47:28.428Z,64.95
2023-03-28T09:52:44.949Z,64.76
2023-03-28T09:58:07.571Z,64.49
2023-03-28T10:03:35.421Z,63.80
2023-03-28T10:08:46.028Z,61.41
2023-03-28T10:14:06.854Z,58.02
2023-03-28T10:19:33.842Z,57.20
2023-03-28T10:24:53.946Z,57.49
2023-03-28T10:30:14.884Z,58.06
2023-03-28T10:35:28.346Z,58.59
2023-03-28T10:41:07.175Z,59.15
2023-03-28T10:46:33.923Z,59.96
2023-03-28T10:51:59.446Z,60.16
2023-03-28T10:57:19.108Z,60.62
2023-03-28T11:02:56.476Z,61.13
2023-03-28T11:08:27.921Z,63.80
2023-03-28T11:13:48.729Z,63.35
2023-03-28T11:19:13.462Z,62.51
2023-03-28T11:24:35.503Z,62.38
2023-03-28T11:29:56.948Z,62.15
2023-03-28T11:35:18.163Z,61.85
2023-03-28T11:40:30.355Z,60.20
2023-03-28T11:45:52.030Z,57.71
2023-03-28T11:51:10.222Z,56.72
2023-03-28T11:56:49.871Z,56.40
2023-03-28T12:02:15.124Z,56.22
2023-03-28T12:07:27.711Z,56.40
2023-03-28T12:12:39.814Z,56.28
2023-03-28T12:17:52.203Z,57.00
2023-03-28T12:23:09.756Z,56.54
2023-03-28T12:28:45.631Z,56.23
2023-03-28T12:34:05.864Z,56.35
2023-03-28T12:39:47.613Z,56.54
2023-03-28T12:45:02.665Z,57.11
2023-03-28T12:50:16.436Z,57.26
2023-03-28T12:55:54.722Z,58.55
2023-03-28T13:01:27.420Z,59.36
2023-03-28T13:07:14.693Z,60.52
2023-03-28T13:12:46.583Z,61.24
2023-03-28T13:18:32.790Z,61.30
2023-03-28T13:23:50.338Z,60.64
2023-03-28T13:29:03.450Z,59.94
2023-03-28T13:34:24.073Z,59.77
2023-03-28T13:39:34.117Z,60.12
2023-03-28T13:44:51.956Z,60.50
2023-03-28T13:50:06.600Z,61.12
2023-03-28T13:55:24.672Z,61.15
2023-03-28T14:00:34.149Z,61.19
2023-03-28T14:05:47.072Z,61.29
2023-03-28T14:10:57.334Z,61.18
2023-03-28T14:16:08.148Z,61.09
2023-03-28T14:21:16.482Z,61.26
2023-03-28T14:26:27.826Z,61.15
2023-03-28T14:31:38.800Z,60.88
2023-03-28T14:37:06.604Z,60.82
2023-03-28T14:42:18.326Z,60.89
2023-03-28T14:47:33.984Z,61.06
2023-03-28T14:52:45.062Z,61.15
2023-03-28T14:57:55.441Z,61.08
2023-03-28T15:03:06.569Z,61.24
2023-03-28T15:08:31.391Z,61.30
2023-03-28T15:13:41.185Z,61.85
2023-03-28T15:33:25.178Z,61.21
2023-03-28T15:38:33.578Z,60.79
2023-03-28T15:43:58.271Z,60.72
2023-03-28T15:49:08.133Z,61.01
2023-03-28T15:54:30.311Z,61.31
2023-03-28T15:59:42.717Z,61.41
2023-03-28T16:05:03.681Z,61.50
2023-03-28T16:10:13.699Z,61.66
2023-03-28T16:15:41.555Z,61.76
2023-03-28T16:21:13.220Z,61.83
2023-03-28T16:26:20.898Z,61.92
2023-03-28T16:31:29.273Z,61.90
2023-03-28T16:36:37.424Z,61.73
2023-03-28T16:41:44.783Z,61.64
2023-03-28T16:46:53.394Z,61.71
2023-03-28T16:52:00.978Z,62.03
2023-03-28T16:57:08.969Z,62.56
2023-03-28T17:02:16.584Z,62.94
2023-03-28T17:07:26.052Z,63.21
2023-03-28T17:12:34.620Z,63.46
2023-03-28T17:33:37.645Z,63.66
2023-03-28T17:38:45.177Z,63.60
2023-03-28T17:43:53.319Z,63.66
2023-03-28T17:49:01.273Z,63.71
2023-03-28T17:54:17.462Z,63.67
2023-03-28T17:59:25.477Z,63.80
2023-03-28T18:04:33.710Z,64.12
2023-03-28T18:09:47.199Z,64.47
2023-03-28T18:14:54.377Z,64.82
2023-03-28T18:20:02.295Z,65.09
2023-03-28T18:25:11.235Z,65.29
2023-03-28T18:30:18.730Z,65.34
2023-03-28T18:35:26.600Z,65.28
2023-03-28T18:40:34.225Z,64.97
2023-03-28T18:45:42.232Z,64.71
2023-03-28T18:50:49.912Z,64.68
2023-03-28T18:55:57.739Z,64.82
2023-03-28T19:01:06.013Z,64.96
2023-03-28T19:06:15.541Z,65.03
2023-03-28T19:11:23.817Z,65.18
2023-03-28T19:16:32.808Z,65.42
2023-03-28T19:21:40.135Z,65.59
2023-03-28T19:26:47.703Z,65.68
2023-03-28T19:31:55.322Z,65.81
2023-03-28T19:37:03.108Z,65.93
2023-03-28T19:42:10.477Z,66.10
2023-03-28T19:47:17.918Z,66.25
2023-03-28T19:52:25.335Z,66.34
2023-03-28T19:57:32.908Z,66.36
2023-03-28T20:02:40.784Z,66.36
2023-03-28T20:07:48.499Z,66.22
2023-03-28T20:12:56.006Z,66.12
2023-03-28T20:18:04.187Z,66.10
2023-03-28T20:23:14.706Z,66.12
2023-03-28T20:28:24.973Z,66.14
2023-03-28T20:33:32.840Z,66.27
2023-03-28T20:38:40.479Z,66.71
2023-03-28T20:43:48.499Z,66.34
2023-03-28T20:48:57.164Z,66.74
2023-03-28T20:54:05.391Z,66.43
2023-03-28T20:59:13.393Z,66.14
2023-03-28T21:04:20.961Z,65.80
2023-03-28T21:09:28.953Z,65.45
2023-03-28T21:14:36.770Z,64.88
2023-03-28T21:19:44.353Z,64.23
2023-03-28T21:24:52.208Z,63.55
2023-03-28T21:30:01.747Z,63.03
2023-03-28T21:35:10.975Z,62.61
2023-03-28T21:40:19.120Z,62.24
2023-03-28T21:45:26.546Z,61.94
2023-03-28T21:50:33.855Z,61.75
2023-03-28T21:55:41.457Z,61.57
2023-03-28T22:00:49.003Z,61.38
2023-03-28T22:05:57.062Z,61.18
2023-03-28T22:11:05.224Z,60.80
2023-03-28T22:16:14.545Z,60.42
2023-03-28T22:21:21.852Z,59.97
2023-03-28T22:26:30.911Z,58.38
2023-03-28T22:31:38.227Z,57.63
2023-03-28T22:36:46.093Z,57.91
2023-03-28T22:41:54.572Z,58.24
2023-03-28T22:47:03.711Z,58.62
2023-03-28T22:52:11.082Z,58.98
2023-03-28T22:57:18.728Z,59.33
2023-03-28T23:02:26.199Z,59.76
2023-03-28T23:07:35.613Z,60.15
2023-03-28T23:12:43.023Z,60.52
2023-03-28T23:17:50.784Z,60.82
2023-03-28T23:22:58.066Z,61.16
2023-03-28T23:28:05.507Z,61.47
2023-03-28T23:33:14.051Z,61.68
2023-03-28T23:38:21.164Z,64.60
2023-03-28T23:43:30.180Z,64.98
2023-03-28T23:48:37.846Z,63.20
2023-03-28T23:53:45.268Z,62.70
2023-03-28T23:58:52.810Z,62.29
